Terminal Aerodrome Forecast
Issued by NWS Brownsville, TX

Home | Current Version | Previous Version | Text Only | Print | Product List | Glossary On
Versions: 1 2 3 4 5 6 7 8 9 10 11 12 13 14 15 16
000
FTUS44 KBRO 282300
TAFMFE
TAF
KMFE 282328Z 2900/2924 34010KT P6SM OVC020
     FM290300 33007KT P6SM BKN035
     FM291100 34004KT 3SM BR SCT200
     FM291500 04004KT P6SM SCT250=

USA.gov is the U.S. government's official web portal to all federal, state and local government web resources and services.